createdAt,value
2018-02-10T00:00:12.944Z,1008.09
2018-02-10T00:01:12.886Z,1008.09
2018-02-10T00:02:12.850Z,1008.12
2018-02-10T00:03:12.840Z,1008.08
2018-02-10T00:04:12.790Z,1008.11
2018-02-10T00:05:12.759Z,1008.12
2018-02-10T00:06:12.731Z,1008.15
2018-02-10T00:07:12.695Z,1008.15
2018-02-10T00:08:12.666Z,1008.16
2018-02-10T00:09:12.638Z,1008.17
2018-02-10T00:10:14.494Z,1008.15
2018-02-10T00:11:12.558Z,1008.17
2018-02-10T00:12:12.553Z,1008.16
2018-02-10T00:13:12.497Z,1008.16
2018-02-10T00:14:12.467Z,1008.15
2018-02-10T00:15:12.454Z,1008.13
2018-02-10T00:16:12.400Z,1008.17
2018-02-10T00:17:12.408Z,1008.13
2018-02-10T00:18:12.344Z,1008.13
2018-02-10T00:19:12.304Z,1008.13
2018-02-10T00:20:12.268Z,1008.16
2018-02-10T00:21:12.236Z,1008.11
2018-02-10T00:22:12.209Z,1008.14
2018-02-10T00:23:12.170Z,1008.13
2018-02-10T00:24:12.158Z,1008.16
2018-02-10T00:25:12.102Z,1008.17
2018-02-10T00:26:12.070Z,1008.19
2018-02-10T00:27:12.059Z,1008.17
2018-02-10T00:28:12.008Z,1008.13
2018-02-10T00:29:11.981Z,1008.17
2018-02-10T00:30:11.946Z,1008.18
2018-02-10T00:31:11.930Z,1008.11
2018-02-10T00:32:11.881Z,1008.16
2018-02-10T00:33:11.849Z,1008.19
2018-02-10T00:34:11.818Z,1008.15
2018-02-10T00:35:11.785Z,1008.13
2018-02-10T00:36:11.750Z,1008.17
2018-02-10T00:37:11.712Z,1008.14
2018-02-10T00:38:11.677Z,1008.15
2018-02-10T00:39:11.647Z,1008.20
2018-02-10T00:40:11.613Z,1008.16
2018-02-10T00:41:11.583Z,1008.15
2018-02-10T00:42:11.559Z,1008.16
2018-02-10T00:43:11.521Z,1008.22
2018-02-10T00:44:11.484Z,1008.16
2018-02-10T00:45:11.459Z,1008.17
2018-02-10T00:46:11.422Z,1008.16
2018-02-10T00:47:11.393Z,1008.14
2018-02-10T00:48:11.358Z,1008.16
2018-02-10T00:49:11.333Z,1008.20
2018-02-10T00:50:11.293Z,1008.21
2018-02-10T00:51:11.267Z,1008.20
2018-02-10T00:52:11.226Z,1008.21
2018-02-10T00:53:11.189Z,1008.18
2018-02-10T00:54:11.162Z,1008.16
2018-02-10T00:55:11.158Z,1008.19
2018-02-10T00:56:11.095Z,1008.20
2018-02-10T00:57:11.057Z,1008.24
2018-02-10T00:58:11.027Z,1008.20
2018-02-10T00:59:11.007Z,1008.20
2018-02-10T01:00:10.964Z,1008.24
2018-02-10T01:01:10.933Z,1008.23
2018-02-10T01:02:10.958Z,1008.25
2018-02-10T01:03:10.866Z,1008.26
2018-02-10T01:04:10.836Z,1008.22
2018-02-10T01:05:10.802Z,1008.27
2018-02-10T01:06:10.787Z,1008.26
2018-02-10T01:07:10.739Z,1008.26
2018-02-10T01:08:10.707Z,1008.24
2018-02-10T01:09:10.668Z,1008.24
2018-02-10T01:10:10.632Z,1008.24
2018-02-10T01:11:10.605Z,1008.23
2018-02-10T01:12:10.567Z,1008.24
2018-02-10T01:13:10.539Z,1008.27
2018-02-10T01:14:10.506Z,1008.23
2018-02-10T01:15:10.478Z,1008.21
2018-02-10T01:16:10.441Z,1008.23
2018-02-10T01:17:10.406Z,1008.24
2018-02-10T01:18:10.371Z,1008.29
2018-02-10T01:19:10.341Z,1008.25
2018-02-10T01:20:10.306Z,1008.25
2018-02-10T01:21:10.288Z,1008.26
2018-02-10T01:22:10.251Z,1008.33
2018-02-10T01:23:10.210Z,1008.34
2018-02-10T01:24:10.173Z,1008.34
2018-02-10T01:25:10.151Z,1008.36
2018-02-10T01:26:10.113Z,1008.33
2018-02-10T01:27:10.083Z,1008.37
2018-02-10T01:28:10.050Z,1008.35
2018-02-10T01:29:10.022Z,1008.35
2018-02-10T01:30:10.020Z,1008.40
2018-02-10T01:31:09.951Z,1008.44
2018-02-10T01:32:09.919Z,1008.42
2018-02-10T01:33:09.890Z,1008.39
2018-02-10T01:34:09.864Z,1008.40
2018-02-10T01:35:09.823Z,1008.45
2018-02-10T01:36:09.783Z,1008.45
2018-02-10T01:37:09.750Z,1008.44
2018-02-10T01:38:09.719Z,1008.39
2018-02-10T01:39:09.703Z,1008.48
2018-02-10T01:40:09.654Z,1008.42
2018-02-10T01:41:09.625Z,1008.41
2018-02-10T01:42:09.589Z,1008.38
2018-02-10T01:43:09.559Z,1008.40
2018-02-10T01:44:09.526Z,1008.41
2018-02-10T01:45:09.492Z,1008.35
2018-02-10T01:46:09.459Z,1008.39
2018-02-10T01:47:09.436Z,1008.36
2018-02-10T01:48:09.395Z,1008.39
2018-02-10T01:49:09.359Z,1008.37
2018-02-10T01:50:09.338Z,1008.39
2018-02-10T01:51:09.294Z,1008.41
2018-02-10T01:52:09.267Z,1008.42
2018-02-10T01:53:09.226Z,1008.38
2018-02-10T01:54:09.204Z,1008.39
2018-02-10T01:55:09.161Z,1008.41
2018-02-10T01:56:09.136Z,1008.36
2018-02-10T01:57:09.107Z,1008.37
2018-02-10T01:58:09.071Z,1008.42
2018-02-10T01:59:09.034Z,1008.39
2018-02-10T02:00:09.007Z,1008.32
2018-02-10T02:01:08.974Z,1008.40
2018-02-10T02:02:08.947Z,1008.37
2018-02-10T02:03:08.903Z,1008.35
2018-02-10T02:04:08.876Z,1008.35
2018-02-10T02:05:08.835Z,1008.36
2018-02-10T02:06:08.804Z,1008.32
2018-02-10T02:07:10.510Z,1008.33
2018-02-10T02:08:08.742Z,1008.35
2018-02-10T02:09:08.712Z,1008.43
2018-02-10T02:10:08.671Z,1008.33
2018-02-10T02:11:08.639Z,1008.37
2018-02-10T02:12:08.606Z,1008.32
2018-02-10T02:13:08.579Z,1008.32
2018-02-10T02:14:08.544Z,1008.33
2018-02-10T02:15:08.551Z,1008.30
2018-02-10T02:16:08.484Z,1008.36
2018-02-10T02:17:08.449Z,1008.38
2018-02-10T02:18:08.413Z,1008.34
2018-02-10T02:19:08.384Z,1008.35
2018-02-10T02:20:08.352Z,1008.42
2018-02-10T02:21:08.322Z,1008.34
2018-02-10T02:22:08.288Z,1008.39
2018-02-10T02:23:08.262Z,1008.43
2018-02-10T02:24:08.219Z,1008.41
2018-02-10T02:25:08.186Z,1008.45
2018-02-10T02:26:08.168Z,1008.45
2018-02-10T02:27:08.121Z,1008.41
2018-02-10T02:28:08.086Z,1008.40
2018-02-10T02:29:08.074Z,1008.38
2018-02-10T02:30:08.020Z,1008.41
2018-02-10T02:31:07.992Z,1008.46
2018-02-10T02:32:10.504Z,1008.42
2018-02-10T02:33:07.935Z,1008.44
2018-02-10T02:34:07.890Z,1008.49
2018-02-10T02:35:07.862Z,1008.48
2018-02-10T02:36:07.824Z,1008.47
2018-02-10T02:37:07.796Z,1008.41
2018-02-10T02:38:07.766Z,1008.46
2018-02-10T02:39:07.734Z,1008.40
2018-02-10T02:40:07.694Z,1008.40
2018-02-10T02:41:07.676Z,1008.37
2018-02-10T02:42:07.632Z,1008.34
2018-02-10T02:43:07.599Z,1008.37
2018-02-10T02:44:07.587Z,1008.34
2018-02-10T02:45:07.535Z,1008.30
2018-02-10T02:46:07.493Z,1008.33
2018-02-10T02:47:07.485Z,1008.36
2018-02-10T02:48:07.431Z,1008.32
2018-02-10T02:49:07.396Z,1008.38
2018-02-10T02:50:07.389Z,1008.42
2018-02-10T02:51:07.328Z,1008.40
2018-02-10T02:52:07.307Z,1008.36
2018-02-10T02:53:09.033Z,1008.40
2018-02-10T02:54:07.230Z,1008.42
2018-02-10T02:55:07.199Z,1008.43
2018-02-10T02:56:10.015Z,1008.45
2018-02-10T02:57:07.146Z,1008.41
2018-02-10T02:58:07.102Z,1008.43
2018-02-10T02:59:07.094Z,1008.47
2018-02-10T03:00:07.043Z,1008.50
2018-02-10T03:01:06.999Z,1008.44
2018-02-10T03:02:07.008Z,1008.46
2018-02-10T03:03:06.934Z,1008.47
2018-02-10T03:04:06.900Z,1008.48
2018-02-10T03:05:06.878Z,1008.50
2018-02-10T03:06:08.501Z,1008.50
2018-02-10T03:07:06.804Z,1008.50
2018-02-10T03:08:06.779Z,1008.54
2018-02-10T03:09:06.745Z,1008.57
2018-02-10T03:10:06.710Z,1008.56
2018-02-10T03:11:06.678Z,1008.55
2018-02-10T03:12:09.508Z,1008.58
2018-02-10T03:13:08.537Z,1008.53
2018-02-10T03:14:06.576Z,1008.52
2018-02-10T03:15:06.545Z,1008.57
2018-02-10T03:16:06.515Z,1008.56
2018-02-10T03:17:06.478Z,1008.62
2018-02-10T03:18:06.450Z,1008.65
2018-02-10T03:19:06.409Z,1008.67
2018-02-10T03:20:06.378Z,1008.62
2018-02-10T03:21:06.350Z,1008.63
2018-02-10T03:22:06.316Z,1008.63
2018-02-10T03:23:06.286Z,1008.68
2018-02-10T03:24:06.251Z,1008.65
2018-02-10T03:25:06.225Z,1008.67
2018-02-10T03:26:06.178Z,1008.68
2018-02-10T03:27:06.149Z,1008.73
2018-02-10T03:28:06.116Z,1008.67
2018-02-10T03:29:06.086Z,1008.68
2018-02-10T03:30:08.011Z,1008.67
2018-02-10T03:31:06.018Z,1008.68
2018-02-10T03:32:05.984Z,1008.68
2018-02-10T03:33:05.955Z,1008.67
2018-02-10T03:34:05.922Z,1008.74
2018-02-10T03:35:05.894Z,1008.71
2018-02-10T03:36:05.859Z,1008.68
2018-02-10T03:37:05.827Z,1008.63
2018-02-10T03:38:05.794Z,1008.64
2018-02-10T03:39:05.757Z,1008.66
2018-02-10T03:40:05.726Z,1008.62
2018-02-10T03:41:07.524Z,1008.69
2018-02-10T03:42:05.656Z,1008.68
2018-02-10T03:43:05.623Z,1008.65
2018-02-10T03:44:05.592Z,1008.71
2018-02-10T03:45:05.562Z,1008.70
2018-02-10T03:46:05.527Z,1008.72
2018-02-10T03:47:07.020Z,1008.76
2018-02-10T03:48:05.505Z,1008.76
2018-02-10T03:49:05.447Z,1008.78
2018-02-10T03:50:05.400Z,1008.83
2018-02-10T03:51:05.369Z,1008.84
2018-02-10T03:52:05.335Z,1008.85
2018-02-10T03:53:05.304Z,1008.83
2018-02-10T03:54:05.269Z,1008.89
2018-02-10T03:55:05.237Z,1008.89
2018-02-10T03:56:05.204Z,1008.91
2018-02-10T03:57:05.168Z,1008.90
2018-02-10T03:58:05.130Z,1008.93
2018-02-10T03:59:07.057Z,1008.96
2018-02-10T04:00:05.071Z,1008.97
2018-02-10T04:01:05.037Z,1008.91
2018-02-10T04:02:05.020Z,1008.93
2018-02-10T04:03:05.043Z,1008.91
2018-02-10T04:04:04.938Z,1008.95
2018-02-10T04:05:04.918Z,1008.95
2018-02-10T04:06:04.876Z,1008.92
2018-02-10T04:07:04.849Z,1008.98
2018-02-10T04:08:04.813Z,1009.05
2018-02-10T04:09:04.778Z,1009.03
2018-02-10T04:10:04.753Z,1009.02
2018-02-10T04:11:04.717Z,1008.99
2018-02-10T04:12:04.686Z,1009.00
2018-02-10T04:13:04.643Z,1008.99
2018-02-10T04:14:07.531Z,1008.99
2018-02-10T04:15:04.591Z,1009.01
2018-02-10T04:16:04.546Z,1009.01
2018-02-10T04:17:04.517Z,1009.04
2018-02-10T04:18:04.484Z,1009.07
2018-02-10T04:19:04.454Z,1009.02
2018-02-10T04:20:04.415Z,1009.06
2018-02-10T04:21:04.386Z,1009.05
2018-02-10T04:22:04.352Z,1009.07
2018-02-10T04:23:04.324Z,1009.04
2018-02-10T04:24:04.288Z,1009.04
2018-02-10T04:25:04.258Z,1009.10
2018-02-10T04:26:06.043Z,1009.03
2018-02-10T04:27:04.184Z,1009.08
2018-02-10T04:28:04.155Z,1009.06
2018-02-10T04:29:04.123Z,1009.05
2018-02-10T04:30:04.090Z,1009.06
2018-02-10T04:31:04.061Z,1009.06
2018-02-10T04:32:04.032Z,1009.08
2018-02-10T04:33:03.994Z,1009.09
2018-02-10T04:34:03.958Z,1009.12
2018-02-10T04:35:03.928Z,1009.03
2018-02-10T04:36:03.896Z,1009.07
2018-02-10T04:37:03.861Z,1009.12
2018-02-10T04:38:05.508Z,1009.12
2018-02-10T04:39:03.794Z,1009.12
2018-02-10T04:40:03.767Z,1009.16
2018-02-10T04:41:03.755Z,1009.13
2018-02-10T04:42:03.693Z,1009.14
2018-02-10T04:43:03.662Z,1009.18
2018-02-10T04:44:03.656Z,1009.15
2018-02-10T04:45:05.511Z,1009.16
2018-02-10T04:46:03.576Z,1009.17
2018-02-10T04:47:03.544Z,1009.20
2018-02-10T04:48:05.011Z,1009.21
2018-02-10T04:49:03.471Z,1009.21
2018-02-10T04:50:03.435Z,1009.25
2018-02-10T04:51:03.401Z,1009.20
2018-02-10T04:52:05.011Z,1009.20
2018-02-10T04:53:03.335Z,1009.24
2018-02-10T04:54:03.311Z,1009.20
2018-02-10T04:55:03.276Z,1009.18
2018-02-10T04:56:03.234Z,1009.16
2018-02-10T04:57:05.026Z,1009.22
2018-02-10T04:58:03.180Z,1009.21
2018-02-10T04:59:03.137Z,1009.21
2018-02-10T05:00:03.105Z,1009.22
2018-02-10T05:01:03.098Z,1009.26
2018-02-10T05:02:05.022Z,1009.20
2018-02-10T05:03:03.009Z,1009.18
2018-02-10T05:04:02.982Z,1009.21
2018-02-10T05:05:02.956Z,1009.22
2018-02-10T05:06:02.915Z,1009.18
2018-02-10T05:07:02.882Z,1009.21
2018-02-10T05:08:02.847Z,1009.20
2018-02-10T05:09:02.809Z,1009.20
2018-02-10T05:10:02.801Z,1009.21
2018-02-10T05:11:02.754Z,1009.17
2018-02-10T05:12:02.722Z,1009.14
2018-02-10T05:13:02.688Z,1009.17
2018-02-10T05:14:04.510Z,1009.13
2018-02-10T05:15:02.619Z,1009.20
2018-02-10T05:16:02.590Z,1009.17
2018-02-10T05:17:02.556Z,1009.21
2018-02-10T05:18:02.520Z,1009.21
2018-02-10T05:19:02.498Z,1009.17
2018-02-10T05:20:02.456Z,1009.14
2018-02-10T05:21:02.425Z,1009.15
2018-02-10T05:22:02.395Z,1009.16
2018-02-10T05:23:02.413Z,1009.09
2018-02-10T05:24:02.326Z,1009.12
2018-02-10T05:25:04.034Z,1009.08
2018-02-10T05:26:02.254Z,1009.07
2018-02-10T05:27:02.222Z,1009.02
2018-02-10T05:28:02.210Z,1009.01
2018-02-10T05:29:02.162Z,1009.04
2018-02-10T05:30:02.127Z,1009.02
2018-02-10T05:31:02.122Z,1009.05
2018-02-10T05:32:02.066Z,1009.02
2018-02-10T05:33:02.040Z,1009.05
2018-02-10T05:34:02.033Z,1009.07
2018-02-10T05:35:01.960Z,1009.03
2018-02-10T05:36:01.985Z,1009.09
2018-02-10T05:37:01.924Z,1009.17
2018-02-10T05:38:01.898Z,1009.20
2018-02-10T05:39:01.855Z,1009.18
2018-02-10T05:40:01.849Z,1009.13
2018-02-10T05:41:01.768Z,1009.16
2018-02-10T05:42:01.747Z,1009.13
2018-02-10T05:43:01.743Z,1009.13
2018-02-10T05:44:01.708Z,1009.15
2018-02-10T05:45:01.638Z,1009.16
2018-02-10T05:46:01.632Z,1009.17
2018-02-10T05:47:03.527Z,1009.18
2018-02-10T05:48:01.537Z,1009.15
2018-02-10T05:49:01.513Z,1009.25
2018-02-10T05:50:01.471Z,1009.25
2018-02-10T05:51:01.436Z,1009.23
2018-02-10T05:52:01.463Z,1009.26
2018-02-10T05:53:01.389Z,1009.19
2018-02-10T05:54:01.337Z,1009.19
2018-02-10T05:55:01.309Z,1009.24
2018-02-10T05:56:01.278Z,1009.19
2018-02-10T05:57:01.280Z,1009.23
2018-02-10T05:58:01.243Z,1009.26
2018-02-10T05:59:01.182Z,1009.24
2018-02-10T06:00:01.151Z,1009.26
2018-02-10T06:01:01.112Z,1009.22
2018-02-10T06:02:04.033Z,1009.25
2018-02-10T06:03:01.050Z,1009.19
2018-02-10T06:04:01.047Z,1009.22
2018-02-10T06:05:00.978Z,1009.24
2018-02-10T06:06:00.946Z,1009.21
2018-02-10T06:07:00.959Z,1009.22
2018-02-10T06:08:00.889Z,1009.17
2018-02-10T06:09:00.892Z,1009.17
2018-02-10T06:10:00.817Z,1009.17
2018-02-10T06:11:00.784Z,1009.16
2018-02-10T06:12:00.749Z,1009.24
2018-02-10T06:13:00.729Z,1009.22
2018-02-10T06:14:00.691Z,1009.21
2018-02-10T06:15:00.659Z,1009.21
2018-02-10T06:16:00.635Z,1009.14
2018-02-10T06:17:02.529Z,1009.15
2018-02-10T06:18:00.565Z,1009.10
2018-02-10T06:19:00.528Z,1009.09
2018-02-10T06:20:00.492Z,1009.12
2018-02-10T06:21:02.047Z,1009.20
2018-02-10T06:22:00.453Z,1009.22
2018-02-10T06:23:00.392Z,1009.23
2018-02-10T06:24:00.366Z,1009.27
2018-02-10T06:25:02.017Z,1009.25
2018-02-10T06:26:00.292Z,1009.18
2018-02-10T06:27:00.262Z,1009.18
2018-02-10T06:28:00.241Z,1009.22
2018-02-10T06:29:00.215Z,1009.19
2018-02-10T06:30:00.178Z,1009.19
2018-02-10T06:31:00.138Z,1009.21
2018-02-10T06:32:00.106Z,1009.22
2018-02-10T06:33:02.029Z,1009.23
2018-02-10T06:34:00.054Z,1009.19
2018-02-10T06:35:00.000Z,1009.22
2018-02-10T06:35:59.980Z,1009.23
2018-02-10T06:36:59.945Z,1009.21
2018-02-10T06:37:59.913Z,1009.17
2018-02-10T06:39:01.534Z,1009.17
2018-02-10T06:39:59.846Z,1009.18
2018-02-10T06:40:59.814Z,1009.17
2018-02-10T06:41:59.782Z,1009.16
2018-02-10T06:42:59.751Z,1009.16
2018-02-10T06:43:59.723Z,1009.21
2018-02-10T06:45:01.526Z,1009.22
2018-02-10T06:45:59.643Z,1009.22
2018-02-10T06:46:59.611Z,1009.25
2018-02-10T06:47:59.585Z,1009.27
2018-02-10T06:48:59.558Z,1009.30
2018-02-10T06:49:59.598Z,1009.31
2018-02-10T06:50:59.485Z,1009.26
2018-02-10T06:51:59.448Z,1009.34
2018-02-10T06:52:59.428Z,1009.30
2018-02-10T06:53:59.390Z,1009.33
2018-02-10T06:54:59.353Z,1009.32
2018-02-10T06:55:59.330Z,1009.33
2018-02-10T06:57:01.022Z,1009.33
2018-02-10T06:57:59.261Z,1009.37
2018-02-10T06:58:59.227Z,1009.38
2018-02-10T06:59:59.196Z,1009.42
2018-02-10T07:01:01.072Z,1009.40
2018-02-10T07:01:59.124Z,1009.39
2018-02-10T07:02:59.094Z,1009.35
2018-02-10T07:03:59.056Z,1009.34
2018-02-10T07:04:59.063Z,1009.34
2018-02-10T07:05:58.991Z,1009.32
2018-02-10T07:06:58.958Z,1009.29
2018-02-10T07:07:58.928Z,1009.33
2018-02-10T07:09:00.536Z,1009.40
2018-02-10T07:09:58.875Z,1009.38
2018-02-10T07:10:58.839Z,1009.33
2018-02-10T07:11:58.806Z,1009.33
2018-02-10T07:12:58.775Z,1009.40
2018-02-10T07:13:58.739Z,1009.39
2018-02-10T07:14:58.708Z,1009.44
2018-02-10T07:15:58.672Z,1009.45
2018-02-10T07:16:58.639Z,1009.41
2018-02-10T07:17:58.617Z,1009.42
2018-02-10T07:18:58.594Z,1009.39
2018-02-10T07:19:58.544Z,1009.41
2018-02-10T07:20:58.545Z,1009.46
2018-02-10T07:21:58.624Z,1009.50
2018-02-10T07:22:58.450Z,1009.53
2018-02-10T07:24:01.023Z,1009.52
2018-02-10T07:24:58.388Z,1009.56
2018-02-10T07:25:58.370Z,1009.61
2018-02-10T07:26:58.317Z,1009.61
2018-02-10T07:27:58.286Z,1009.63
2018-02-10T07:28:58.256Z,1009.69
2018-02-10T07:29:58.224Z,1009.71
2018-02-10T07:30:58.271Z,1009.73
2018-02-10T07:31:58.220Z,1009.78
2018-02-10T07:32:58.148Z,1009.77
2018-02-10T07:33:58.132Z,1009.75
2018-02-10T07:34:58.082Z,1009.76
2018-02-10T07:35:58.094Z,1009.76
2018-02-10T07:36:57.990Z,1009.75
2018-02-10T07:37:57.957Z,1009.73
2018-02-10T07:38:57.955Z,1009.75
2018-02-10T07:39:57.899Z,1009.74
2018-02-10T07:40:59.536Z,1009.79
2018-02-10T07:41:57.830Z,1009.76
2018-02-10T07:42:57.824Z,1009.78
2018-02-10T07:43:57.804Z,1009.76
2018-02-10T07:44:59.534Z,1009.80
2018-02-10T07:45:57.702Z,1009.80
2018-02-10T07:46:57.669Z,1009.79
2018-02-10T07:47:57.636Z,1009.82
2018-02-10T07:48:57.606Z,1009.80
2018-02-10T07:49:57.592Z,1009.74
2018-02-10T07:50:57.536Z,1009.76
2018-02-10T07:51:57.512Z,1009.72
2018-02-10T07:52:57.524Z,1009.70
2018-02-10T07:53:57.443Z,1009.72
2018-02-10T07:54:57.408Z,1009.71
2018-02-10T07:55:57.374Z,1009.73
2018-02-10T07:56:57.356Z,1009.70
2018-02-10T07:57:57.315Z,1009.72
2018-02-10T07:58:57.282Z,1009.69
2018-02-10T07:59:57.564Z,1009.70
2018-02-10T08:00:57.213Z,1009.67
2018-02-10T08:01:57.182Z,1009.66
2018-02-10T08:02:57.152Z,1009.64
2018-02-10T08:03:58.118Z,1009.62
2018-02-10T08:04:57.113Z,1009.62
2018-02-10T08:05:57.092Z,1009.61
2018-02-10T08:06:57.079Z,1009.59
2018-02-10T08:07:57.105Z,1009.62
2018-02-10T08:08:57.073Z,1009.62
2018-02-10T08:09:56.992Z,1009.69
2018-02-10T08:10:56.916Z,1009.62
2018-02-10T08:11:56.857Z,1009.68
2018-02-10T08:12:56.833Z,1009.71
2018-02-10T08:13:56.801Z,1009.66
2018-02-10T08:14:56.803Z,1009.71
2018-02-10T08:15:58.546Z,1009.69
2018-02-10T08:16:56.697Z,1009.64
2018-02-10T08:17:56.693Z,1009.65
2018-02-10T08:18:56.627Z,1009.64
2018-02-10T08:19:56.596Z,1009.60
2018-02-10T08:20:58.564Z,1009.66
2018-02-10T08:21:56.528Z,1009.67
2018-02-10T08:22:56.571Z,1009.69
2018-02-10T08:23:56.479Z,1009.74
2018-02-10T08:24:56.436Z,1009.74
2018-02-10T08:25:56.399Z,1009.74
2018-02-10T08:26:56.439Z,1009.70
2018-02-10T08:27:59.026Z,1009.75
2018-02-10T08:28:59.037Z,1009.77
2018-02-10T08:29:56.287Z,1009.87
2018-02-10T08:30:56.267Z,1009.85
2018-02-10T08:31:56.221Z,1009.85
2018-02-10T08:32:56.185Z,1009.91
2018-02-10T08:33:56.140Z,1009.94
2018-02-10T08:34:56.109Z,1009.89
2018-02-10T08:35:56.092Z,1009.97
2018-02-10T08:36:56.037Z,1009.92
2018-02-10T08:37:56.009Z,1009.99
2018-02-10T08:38:56.014Z,1009.99
2018-02-10T08:39:57.530Z,1010.04
2018-02-10T08:40:55.911Z,1010.02
2018-02-10T08:41:55.913Z,1010.01
2018-02-10T08:42:55.848Z,1009.98
2018-02-10T08:43:55.854Z,1009.95
2018-02-10T08:44:55.809Z,1009.92
2018-02-10T08:45:55.743Z,1009.93
2018-02-10T08:46:55.714Z,1009.96
2018-02-10T08:47:55.679Z,1009.94
2018-02-10T08:48:55.678Z,1009.96
2018-02-10T08:49:55.612Z,1009.91
2018-02-10T08:50:55.607Z,1009.99
2018-02-10T08:51:55.556Z,1009.96
2018-02-10T08:52:55.522Z,1009.90
2018-02-10T08:53:55.510Z,1009.96
2018-02-10T08:54:55.458Z,1009.97
2018-02-10T08:55:58.046Z,1009.89
2018-02-10T08:56:55.398Z,1009.93
2018-02-10T08:57:55.354Z,1009.95
2018-02-10T08:58:55.330Z,1009.96
2018-02-10T08:59:55.292Z,1009.92
2018-02-10T09:00:55.254Z,1009.96
2018-02-10T09:01:55.222Z,1009.98
2018-02-10T09:02:55.318Z,1009.92
2018-02-10T09:03:55.156Z,1009.98
2018-02-10T09:04:55.125Z,1009.97
2018-02-10T09:05:55.090Z,1009.99
2018-02-10T09:06:55.059Z,1010.00
2018-02-10T09:07:55.027Z,1009.98
2018-02-10T09:08:55.118Z,1009.98
2018-02-10T09:09:54.994Z,1010.04
2018-02-10T09:10:54.931Z,1010.05
2018-02-10T09:11:54.904Z,1010.05
2018-02-10T09:12:54.900Z,1010.04
2018-02-10T09:13:54.841Z,1010.05
2018-02-10T09:14:54.801Z,1010.05
2018-02-10T09:15:54.776Z,1010.05
2018-02-10T09:16:54.740Z,1010.05
2018-02-10T09:17:54.702Z,1010.11
2018-02-10T09:18:54.667Z,1010.09
2018-02-10T09:19:54.748Z,1010.10
2018-02-10T09:20:54.601Z,1010.11
2018-02-10T09:21:54.630Z,1010.05
2018-02-10T09:22:54.538Z,1010.02
2018-02-10T09:23:54.507Z,1010.03
2018-02-10T09:24:54.481Z,1010.03
2018-02-10T09:25:54.565Z,1010.03
2018-02-10T09:26:54.409Z,1010.02
2018-02-10T09:27:54.381Z,1010.03
2018-02-10T09:28:56.033Z,1010.02
2018-02-10T09:29:56.079Z,1010.09
2018-02-10T09:30:54.283Z,1010.09
2018-02-10T09:31:54.250Z,1010.15
2018-02-10T09:32:54.235Z,1010.14
2018-02-10T09:33:54.182Z,1010.20
2018-02-10T09:34:54.149Z,1010.19
2018-02-10T09:35:54.116Z,1010.22
2018-02-10T09:36:54.086Z,1010.15
2018-02-10T09:37:54.049Z,1010.18
2018-02-10T09:38:54.033Z,1010.20
2018-02-10T09:39:54.004Z,1010.21
2018-02-10T09:40:53.958Z,1010.23
2018-02-10T09:41:53.923Z,1010.24
2018-02-10T09:42:53.894Z,1010.23
2018-02-10T09:43:53.865Z,1010.25
2018-02-10T09:44:53.824Z,1010.28
2018-02-10T09:45:53.794Z,1010.26
2018-02-10T09:46:53.778Z,1010.34
2018-02-10T09:47:53.780Z,1010.30
2018-02-10T09:48:53.701Z,1010.30
2018-02-10T09:49:53.671Z,1010.32
2018-02-10T09:50:53.632Z,1010.35
2018-02-10T09:51:53.603Z,1010.31
2018-02-10T09:52:53.569Z,1010.34
2018-02-10T09:53:53.539Z,1010.33
2018-02-10T09:54:53.504Z,1010.24
2018-02-10T09:55:53.476Z,1010.24
2018-02-10T09:56:53.437Z,1010.25
2018-02-10T09:57:53.402Z,1010.23
2018-02-10T09:58:53.372Z,1010.27
2018-02-10T09:59:53.338Z,1010.29
2018-02-10T10:00:53.308Z,1010.23
2018-02-10T10:01:53.275Z,1010.29
2018-02-10T10:02:53.293Z,1010.25
2018-02-10T10:03:53.208Z,1010.29
2018-02-10T10:04:53.183Z,1010.28
2018-02-10T10:05:53.149Z,1010.26
2018-02-10T10:06:53.116Z,1010.18
2018-02-10T10:07:53.086Z,1010.18
2018-02-10T10:08:53.053Z,1010.20
2018-02-10T10:09:53.062Z,1010.24
2018-02-10T10:10:52.985Z,1010.25
2018-02-10T10:11:52.952Z,1010.22
2018-02-10T10:12:52.917Z,1010.21
2018-02-10T10:13:52.883Z,1010.23
2018-02-10T10:14:52.857Z,1010.23
2018-02-10T10:15:52.827Z,1010.19
2018-02-10T10:16:52.791Z,1010.18
2018-02-10T10:17:52.756Z,1010.18
2018-02-10T10:18:52.723Z,1010.22
2018-02-10T10:19:52.689Z,1010.13
2018-02-10T10:20:52.665Z,1010.25
2018-02-10T10:21:52.630Z,1010.22
2018-02-10T10:22:52.596Z,1010.21
2018-02-10T10:23:52.564Z,1010.18
2018-02-10T10:24:52.533Z,1010.19
2018-02-10T10:25:52.499Z,1010.20
2018-02-10T10:26:52.470Z,1010.17
2018-02-10T10:27:52.440Z,1010.21
2018-02-10T10:28:52.400Z,1010.17
2018-02-10T10:29:52.368Z,1010.20
2018-02-10T10:30:52.444Z,1010.21
2018-02-10T10:31:52.304Z,1010.16
2018-02-10T10:32:52.279Z,1010.20
2018-02-10T10:33:52.236Z,1010.23
2018-02-10T10:34:52.206Z,1010.23
2018-02-10T10:35:52.178Z,1010.22
2018-02-10T10:36:52.153Z,1010.20
2018-02-10T10:37:52.114Z,1010.24
2018-02-10T10:38:53.104Z,1010.20
2018-02-10T10:39:52.053Z,1010.25
2018-02-10T10:40:52.017Z,1010.19
2018-02-10T10:41:51.990Z,1010.17
2018-02-10T10:42:51.955Z,1010.23
2018-02-10T10:43:51.955Z,1010.24
2018-02-10T10:44:51.911Z,1010.22
2018-02-10T10:45:51.856Z,1010.20
2018-02-10T10:46:51.823Z,1010.18
2018-02-10T10:47:51.789Z,1010.23
2018-02-10T10:48:51.775Z,1010.21
2018-02-10T10:49:51.728Z,1010.21
2018-02-10T10:50:51.696Z,1010.15
2018-02-10T10:51:51.669Z,1010.15
2018-02-10T10:52:51.630Z,1010.12
2018-02-10T10:53:51.595Z,1010.14
2018-02-10T10:54:51.564Z,1010.18
2018-02-10T10:55:51.535Z,1010.18
2018-02-10T10:56:51.504Z,1010.18
2018-02-10T10:57:51.468Z,1010.20
2018-02-10T10:58:51.436Z,1010.16
2018-02-10T10:59:51.403Z,1010.21
2018-02-10T11:00:51.381Z,1010.21
2018-02-10T11:01:51.342Z,1010.14
2018-02-10T11:02:51.320Z,1010.20
2018-02-10T11:03:51.277Z,1010.20
2018-02-10T11:04:51.255Z,1010.14
2018-02-10T11:05:51.232Z,1010.17
2018-02-10T11:06:51.246Z,1010.18
2018-02-10T11:07:51.152Z,1010.15
2018-02-10T11:08:53.039Z,1010.21
2018-02-10T11:09:51.088Z,1010.18
2018-02-10T11:10:51.058Z,1010.20
2018-02-10T11:11:51.021Z,1010.31
2018-02-10T11:12:50.988Z,1010.24
2018-02-10T11:13:50.973Z,1010.21
2018-02-10T11:14:50.923Z,1010.18
2018-02-10T11:15:50.890Z,1010.18
2018-02-10T11:16:50.865Z,1010.21
2018-02-10T11:17:50.835Z,1010.17
2018-02-10T11:18:50.801Z,1010.24
2018-02-10T11:19:50.781Z,1010.21
2018-02-10T11:20:50.739Z,1010.25
2018-02-10T11:21:50.705Z,1010.22
2018-02-10T11:22:50.679Z,1010.23
2018-02-10T11:23:50.642Z,1010.23
2018-02-10T11:24:50.602Z,1010.24
2018-02-10T11:25:50.577Z,1010.20
2018-02-10T11:26:50.541Z,1010.26
2018-02-10T11:27:50.509Z,1010.22
2018-02-10T11:28:50.485Z,1010.24
2018-02-10T11:29:50.453Z,1010.27
2018-02-10T11:30:50.409Z,1010.26
2018-02-10T11:31:50.445Z,1010.24
2018-02-10T11:32:50.352Z,1010.27
2018-02-10T11:33:50.318Z,1010.21
2018-02-10T11:34:50.297Z,1010.21
2018-02-10T11:35:50.252Z,1010.24
2018-02-10T11:36:50.223Z,1010.27
2018-02-10T11:37:50.212Z,1010.20
2018-02-10T11:38:50.157Z,1010.25
2018-02-10T11:39:50.127Z,1010.20
2018-02-10T11:40:50.206Z,1010.19
2018-02-10T11:41:50.055Z,1010.18
2018-02-10T11:42:50.030Z,1010.18
2018-02-10T11:43:50.057Z,1010.20
2018-02-10T11:44:50.016Z,1010.20
2018-02-10T11:45:49.926Z,1010.16
2018-02-10T11:46:49.922Z,1010.18
2018-02-10T11:47:49.926Z,1010.18
2018-02-10T11:48:49.838Z,1010.17
2018-02-10T11:49:49.805Z,1010.15
2018-02-10T11:50:49.800Z,1010.12
2018-02-10T11:51:49.739Z,1010.14
2018-02-10T11:52:49.712Z,1010.13
2018-02-10T11:53:49.679Z,1010.08
2018-02-10T11:54:49.647Z,1010.14
2018-02-10T11:55:49.615Z,1010.12
2018-02-10T11:56:49.575Z,1010.10
2018-02-10T11:57:49.544Z,1010.08
2018-02-10T11:58:49.533Z,1010.11
2018-02-10T11:59:49.487Z,1010.12
2018-02-10T12:00:49.481Z,1010.08
2018-02-10T12:01:49.422Z,1010.05
2018-02-10T12:02:49.391Z,1010.08
2018-02-10T12:03:49.357Z,1010.07
2018-02-10T12:04:49.331Z,1010.10